Time;durP1;ratioP1;P1;durP2;ratioP2;P2;SDS_P1;SDS_P2;PMS_P1;PMS_P2;Temp;Humidity;BMP_temperature;BMP_pressure;BME280_temperature;BME280_humidity;BME280_pressure;Samples;Min_cycle;Max_cycle;Signal;HPM_P1;HPM_P2
2022/02/02 00:01:51;;;;;;;10.75;5.35;;;;;;;-0.29;87.22;96732.97;5103550;28;20032;-71
2022/02/02 00:04:21;;;;;;;12.45;6.25;;;;;;;-0.29;87.57;96744.53;5103585;28;20019;-70
2022/02/02 00:09:55;;;;;;;12.98;6.30;;;;;;;-0.25;86.63;96740.22;5006159;28;20068;-71
2022/02/02 00:12:39;;;;;;;16.23;8.52;;;;;;;-0.24;87.56;96741.06;5068315;28;20044;-71
2022/02/02 00:17:49;;;;;;;10.02;5.40;;;;;;;-0.22;87.44;96736.22;5103806;28;20049;-71
2022/02/02 00:20:29;;;;;;;10.82;6.15;;;;;;;-0.22;87.35;96737.00;5103598;28;20032;-71
2022/02/02 00:22:59;;;;;;;11.23;5.97;;;;;;;-0.20;86.89;96740.25;5101850;28;20614;-71
2022/02/02 00:25:32;;;;;;;11.73;5.40;;;;;;;-0.17;87.54;96730.78;5084319;28;20023;-71
2022/02/02 00:28:00;;;;;;;11.18;5.35;;;;;;;-0.16;86.68;96749.41;5084137;28;20027;-71
2022/02/02 00:30:30;;;;;;;9.50;5.38;;;;;;;-0.13;87.20;96745.34;5102985;28;20487;-71
2022/02/02 00:33:10;;;;;;;8.10;4.55;;;;;;;-0.12;86.94;96738.88;5101020;28;20129;-72
2022/02/02 00:35:41;;;;;;;9.85;4.85;;;;;;;-0.11;86.93;96748.59;5102755;28;20034;-71
2022/02/02 00:38:06;;;;;;;7.78;4.55;;;;;;;-0.12;86.87;96740.78;5102947;28;20028;-72
2022/02/02 00:40:32;;;;;;;7.03;4.00;;;;;;;-0.12;86.91;96748.88;5103262;28;20119;-71
2022/02/02 00:42:58;;;;;;;8.90;4.68;;;;;;;-0.10;86.68;96749.41;5083086;28;20044;-71
2022/02/02 00:45:30;;;;;;;9.73;4.38;;;;;;;-0.11;87.01;96745.88;5102999;28;20475;-71
2022/02/02 00:47:56;;;;;;;8.70;3.88;;;;;;;-0.12;86.77;96744.28;5101462;28;20015;-70
2022/02/02 00:50:21;;;;;;;7.10;3.78;;;;;;;-0.13;86.68;96742.66;5103380;28;20030;-71
2022/02/02 00:52:51;;;;;;;8.90;4.90;;;;;;;-0.13;87.22;96758.81;5102401;28;20027;-71
2022/02/02 00:55:17;;;;;;;6.22;3.60;;;;;;;-0.14;86.81;96767.97;5103865;28;20084;-71
2022/02/02 00:57:43;;;;;;;7.20;4.03;;;;;;;-0.12;87.11;96759.66;5103042;28;20046;-70
2022/02/02 01:00:09;;;;;;;7.28;3.60;;;;;;;-0.12;86.59;96751.56;5102811;28;20032;-71
2022/02/02 01:02:34;;;;;;;7.50;5.30;;;;;;;-0.13;86.85;96739.97;5083243;28;20122;-71
2022/02/02 01:04:59;;;;;;;4.75;3.10;;;;;;;-0.13;86.76;96764.22;5102606;28;20023;-71
2022/02/02 01:07:48;;;;;;;6.70;3.90;;;;;;;-0.15;86.99;96752.88;5104720;28;20059;-71
2022/02/02 01:28:36;;;;;;;4.45;2.45;;;;;;;0.14;86.79;96749.69;5106107;28;20050;-71
2022/02/02 01:31:02;;;;;;;6.03;2.97;;;;;;;0.16;86.67;96752.91;5105525;28;20016;-71
2022/02/02 01:33:29;;;;;;;5.60;3.40;;;;;;;0.21;87.01;96754.78;5105096;28;20104;-71
2022/02/02 01:35:56;;;;;;;5.85;3.72;;;;;;;0.26;86.39;96752.09;5086401;28;20134;-71
2022/02/02 01:38:24;;;;;;;6.75;4.00;;;;;;;0.27;86.52;96753.72;5105782;28;20485;-71
2022/02/02 01:40:58;;;;;;;6.35;3.70;;;;;;;0.29;86.45;96749.66;5106328;28;20416;-72
2022/02/02 01:43:31;;;;;;;4.95;3.08;;;;;;;0.35;86.13;96745.06;5105456;28;20036;-71
2022/02/02 01:46:05;;;;;;;4.03;2.63;;;;;;;0.40;86.59;96760.44;5105112;28;20031;-71
2022/02/02 01:48:40;;;;;;;3.67;2.22;;;;;;;0.44;86.43;96758.81;5105999;28;20035;-71
2022/02/02 01:54:17;;;;;;;4.47;2.55;;;;;;;0.49;86.35;96748.00;5105270;28;20436;-71
2022/02/02 01:56:36;;;;;;;4.80;2.35;;;;;;;0.50;85.85;96763.13;5105094;28;20114;-71
2022/02/02 01:59:13;;;;;;;4.75;2.20;;;;;;;0.53;85.76;96761.75;5105814;28;20024;-71
2022/02/02 02:01:39;;;;;;;5.10;2.55;;;;;;;0.55;85.66;96773.06;5106042;28;20024;-71
2022/02/02 02:04:04;;;;;;;4.03;2.50;;;;;;;0.56;85.86;96767.41;5104976;28;20031;-70
2022/02/02 02:06:30;;;;;;;3.33;2.30;;;;;;;0.57;85.78;96758.25;5105037;28;20039;-71
2022/02/02 02:08:55;;;;;;;3.60;2.00;;;;;;;0.61;86.22;96758.50;5106443;28;20038;-71
2022/02/02 02:11:22;;;;;;;4.13;1.83;;;;;;;0.64;85.55;96762.53;5106959;28;20027;-71
2022/02/02 02:16:32;;;;;;;4.50;2.30;;;;;;;0.64;85.38;96752.56;5105235;27;20038;-72
2022/02/02 02:18:58;;;;;;;3.67;2.30;;;;;;;0.65;85.68;96767.66;5104727;28;20039;-71
2022/02/02 02:21:24;;;;;;;3.13;2.17;;;;;;;0.64;85.82;96755.25;5104981;28;20034;-71
2022/02/02 02:23:50;;;;;;;5.75;3.08;;;;;;;0.64;86.09;96740.94;5105043;28;20024;-71
2022/02/02 02:26:26;;;;;;;4.55;2.72;;;;;;;0.66;85.74;96752.28;5106371;28;20032;-71
2022/02/02 02:29:18;;;;;;;4.97;2.50;;;;;;;0.68;85.69;96766.28;5088183;28;20020;-71
2022/02/02 02:39:39;;;;;;;3.58;1.98;;;;;;;0.74;85.65;96757.94;5106369;28;20035;-71
2022/02/02 02:55:59;;;;;;;2.85;2.00;;;;;;;0.83;85.74;96757.34;5073943;28;20395;-71
2022/02/02 03:30:05;;;;;;;9.85;3.65;;;;;;;1.06;85.16;96798.31;5103708;28;20513;-70
2022/02/02 03:51:50;;;;;;;9.85;3.30;;;;;;;1.12;84.61;96797.22;5104534;28;20042;-70
2022/02/02 03:57:26;;;;;;;6.85;4.05;;;;;;;1.14;84.07;96809.34;5104935;28;20043;-70
2022/02/02 04:03:30;;;;;;;5.05;2.83;;;;;;;1.15;84.19;96810.97;5020648;28;20125;-69
2022/02/02 04:06:02;;;;;;;5.85;2.40;;;;;;;1.21;84.46;96814.47;5021324;28;20037;-70
2022/02/02 04:08:30;;;;;;;4.40;2.28;;;;;;;1.22;84.03;96807.16;5082266;28;20148;-70
2022/02/02 04:10:58;;;;;;;5.43;2.80;;;;;;;1.21;83.79;96809.06;5104041;28;20519;-70
2022/02/02 05:06:27;;;;;;;8.82;4.22;;;;;;;1.38;84.53;96830.34;5108144;28;20406;-71
2022/02/02 05:53:23;;;;;;;6.18;3.00;;;;;;;1.48;84.82;96870.00;5104199;28;20446;-71
2022/02/02 05:55:50;;;;;;;6.82;2.80;;;;;;;1.48;84.84;96872.72;5107091;27;20035;-70
2022/02/02 05:58:15;;;;;;;6.78;2.60;;;;;;;1.49;84.31;96867.00;5106081;28;20027;-71
2022/02/02 06:00:41;;;;;;;7.38;2.95;;;;;;;1.50;84.57;96873.25;5105630;28;20043;-70
2022/02/02 06:03:13;;;;;;;5.18;2.03;;;;;;;1.52;84.28;96873.78;5104619;28;20032;-71
2022/02/02 06:05:40;;;;;;;8.15;2.70;;;;;;;1.55;84.43;96877.81;5105170;28;20100;-71
2022/02/02 06:08:14;;;;;;;7.85;2.80;;;;;;;1.57;84.32;96881.03;5087512;28;20031;-71
2022/02/02 06:10:41;;;;;;;6.65;2.67;;;;;;;1.59;84.31;96886.97;5105921;28;20023;-71
2022/02/02 06:13:07;;;;;;;5.80;2.72;;;;;;;1.64;84.75;96881.56;5105482;28;20073;-71
2022/02/02 06:15:35;;;;;;;6.97;2.50;;;;;;;1.68;84.74;96882.63;5105536;28;20096;-70
2022/02/02 06:18:02;;;;;;;6.38;2.67;;;;;;;1.69;84.22;96881.53;5105804;28;20026;-71
2022/02/02 06:20:28;;;;;;;9.48;3.72;;;;;;;1.70;84.55;96891.25;5106108;28;20037;-71
2022/02/02 06:23:13;;;;;;;6.68;2.60;;;;;;;1.70;84.08;96896.66;5105394;28;20032;-71
2022/02/02 06:25:45;;;;;;;9.32;3.63;;;;;;;1.68;84.36;96896.13;5105543;28;20124;-71
2022/02/02 06:28:17;;;;;;;15.77;5.22;;;;;;;1.68;84.50;96906.13;5086917;28;20128;-71
2022/02/02 06:30:44;;;;;;;7.07;3.30;;;;;;;1.71;84.03;96903.69;5106029;28;20196;-71
2022/02/02 06:33:11;;;;;;;6.40;3.00;;;;;;;1.73;83.74;96906.94;5104533;28;20928;-71
2022/02/02 06:35:38;;;;;;;9.55;3.95;;;;;;;1.76;84.04;96903.69;5105474;28;20039;-71
2022/02/02 06:38:05;;;;;;;9.55;3.17;;;;;;;1.75;83.94;96907.47;5106115;28;20039;-71
2022/02/02 06:40:33;;;;;;;14.95;6.43;;;;;;;1.78;83.67;96914.19;5105305;28;20030;-70
2022/02/02 06:42:59;;;;;;;17.23;6.35;;;;;;;1.77;83.83;96913.41;5103296;28;20047;-71
2022/02/02 06:45:25;;;;;;;14.63;5.90;;;;;;;1.76;83.44;96914.50;5106135;28;20494;-71
2022/02/02 06:47:51;;;;;;;13.38;4.32;;;;;;;1.78;83.40;96923.13;5105438;28;20031;-71
2022/02/02 06:50:27;;;;;;;9.10;4.03;;;;;;;1.80;84.14;96922.03;5105729;28;20054;-71
2022/02/02 06:53:13;;;;;;;7.93;2.65;;;;;;;1.85;84.09;96916.59;5105131;28;20023;-71
2022/02/02 06:56:31;;;;;;;15.55;3.83;;;;;;;1.93;83.17;96924.94;5105502;28;20093;-71
2022/02/02 07:04:51;;;;;;;10.45;4.45;;;;;;;2.07;82.92;96943.25;5104698;28;20047;-72
2022/02/02 07:21:26;;;;;;;4.68;1.92;;;;;;;2.16;81.94;96963.22;5106006;28;20813;-72
2022/02/02 07:29:53;;;;;;;7.65;2.40;;;;;;;2.12;82.16;96974.88;5103845;28;20498;-72
2022/02/02 07:32:22;;;;;;;6.50;2.25;;;;;;;2.15;82.19;96971.63;5095789;28;20867;-73
2022/02/02 07:35:00;;;;;;;9.40;2.92;;;;;;;2.18;82.17;96973.78;5102825;27;20027;-71
2022/02/02 07:37:36;;;;;;;8.43;2.88;;;;;;;2.20;81.31;96980.53;5104026;28;20019;-71
2022/02/02 07:40:07;;;;;;;7.15;3.15;;;;;;;2.21;81.52;96982.13;5102487;28;20031;-71
2022/02/02 07:42:33;;;;;;;5.60;2.30;;;;;;;2.23;81.38;96976.47;5083696;28;20122;-71
2022/02/02 07:45:08;;;;;;;6.97;2.35;;;;;;;2.23;81.39;96990.00;5097903;27;20223;-68
2022/02/02 07:47:38;;;;;;;4.68;1.98;;;;;;;2.26;81.39;96980.50;5101877;28;20035;-70
2022/02/02 07:50:05;;;;;;;9.43;2.72;;;;;;;2.27;80.94;96988.31;5102260;28;20110;-70
2022/02/02 07:52:32;;;;;;;6.43;2.22;;;;;;;2.28;80.99;96992.66;5098367;28;20119;-70
2022/02/02 07:55:01;;;;;;;9.80;2.70;;;;;;;2.30;80.73;96985.06;5098892;27;20114;-69
2022/02/02 07:57:28;;;;;;;5.88;2.00;;;;;;;2.34;80.77;96986.13;5107887;28;20023;-69
2022/02/02 07:59:59;;;;;;;5.32;1.90;;;;;;;2.35;79.92;96985.03;5109456;28;20357;-71
2022/02/02 08:02:43;;;;;;;6.03;1.75;;;;;;;2.38;80.38;96981.78;5108030;28;20036;-69
2022/02/02 08:05:11;;;;;;;11.55;4.60;;;;;;;2.38;80.05;96989.91;5109266;28;20076;-72
2022/02/02 08:07:43;;;;;;;5.25;2.30;;;;;;;2.41;80.42;96979.59;5105835;28;20024;-71
2022/02/02 08:10:21;;;;;;;5.85;2.40;;;;;;;2.43;80.31;96988.25;5108054;28;20034;-73
2022/02/02 08:12:50;;;;;;;8.68;4.07;;;;;;;2.46;79.41;96993.91;5105663;28;20024;-71
2022/02/02 08:15:18;;;;;;;13.48;6.47;;;;;;;2.51;79.95;96998.50;5089962;28;20543;-71
2022/02/02 08:17:44;;;;;;;12.75;4.50;;;;;;;2.54;80.04;97000.66;5110253;28;20024;-71
2022/02/02 08:20:11;;;;;;;13.57;5.43;;;;;;;2.60;79.50;96996.00;5114179;28;20421;-70
2022/02/02 08:22:39;;;;;;;10.52;4.28;;;;;;;2.63;79.23;97011.69;5114109;27;20031;-71
2022/02/02 08:25:09;;;;;;;7.15;3.05;;;;;;;2.66;78.25;97005.72;5113804;28;20028;-71
2022/02/02 08:27:41;;;;;;;13.55;5.18;;;;;;;2.73;78.53;97008.09;5109906;28;20053;-71
2022/02/02 08:30:07;;;;;;;11.75;3.35;;;;;;;2.79;78.11;96999.69;5098692;27;20031;-72
2022/02/02 08:32:40;;;;;;;12.20;4.00;;;;;;;2.81;77.72;97018.34;5113017;28;20027;-68
2022/02/02 08:35:06;;;;;;;16.50;5.97;;;;;;;2.86;76.73;97015.59;5113699;28;20028;-72
2022/02/02 08:37:34;;;;;;;8.82;3.08;;;;;;;2.94;76.38;97020.41;5113664;27;20077;-71
2022/02/02 08:40:17;;;;;;;11.23;3.97;;;;;;;2.98;77.56;97018.75;5114364;27;20479;-69
2022/02/02 08:42:43;;;;;;;9.60;4.32;;;;;;;3.02;77.09;97015.50;5111297;28;20024;-68
2022/02/02 08:47:45;;;;;;;13.55;5.35;;;;;;;3.06;76.43;97055.25;5112546;28;20387;-67
2022/02/02 08:50:11;;;;;;;12.63;3.90;;;;;;;3.10;77.14;97033.81;5114584;27;20031;-67
2022/02/02 08:52:49;;;;;;;4.85;1.95;;;;;;;3.10;76.18;97037.38;5110473;28;20023;-68
2022/02/02 08:55:16;;;;;;;11.23;4.32;;;;;;;3.10;75.96;97044.66;5113452;28;20031;-69
2022/02/02 09:00:14;;;;;;;11.43;5.60;;;;;;;3.16;76.23;97045.44;5109069;28;20101;-70
2022/02/02 09:02:53;;;;;;;17.08;9.32;;;;;;;3.17;75.26;97044.34;5108635;28;20036;-71
2022/02/02 09:05:25;;;;;;;26.48;13.32;;;;;;;3.15;75.87;97058.16;5110051;27;20027;-67
2022/02/02 09:07:51;;;;;;;5.97;2.38;;;;;;;3.04;76.26;97062.06;5112624;28;20115;-72
2022/02/02 09:20:02;;;;;;;7.38;2.90;;;;;;;2.97;76.71;97076.72;5111421;28;20094;-66
2022/02/02 09:24:00;;;;;;;10.73;3.10;;;;;;;2.85;77.23;97081.66;5075547;28;20043;-69
2022/02/02 09:31:27;;;;;;;9.52;3.72;;;;;;;2.90;77.32;97092.47;5109243;28;20039;-69
2022/02/02 09:34:22;;;;;;;9.80;3.65;;;;;;;3.08;77.90;97099.13;5111717;27;20044;-69
2022/02/02 09:36:48;;;;;;;9.23;3.60;;;;;;;3.19;77.35;97110.72;5110995;28;20036;-70
2022/02/02 09:39:20;;;;;;;13.68;3.75;;;;;;;3.22;77.96;97106.66;5088786;28;20028;-70
2022/02/02 09:41:52;;;;;;;7.60;2.90;;;;;;;3.26;78.02;97107.69;5107705;27;20023;-69
2022/02/02 09:44:23;;;;;;;14.90;5.15;;;;;;;3.31;78.08;97102.22;5107913;27;20035;-71
2022/02/02 09:47:01;;;;;;;36.58;11.13;;;;;;;3.30;77.41;97102.50;5109442;27;20023;-70
2022/02/02 09:49:50;;;;;;;14.70;4.25;;;;;;;3.25;77.80;97103.38;5112328;27;20471;-69
2022/02/02 09:52:18;;;;;;;17.00;6.20;;;;;;;3.21;77.61;97094.97;5110262;27;20033;-69
2022/02/02 10:10:36;;;;;;;5.53;2.47;;;;;;;2.98;77.96;97118.16;5112631;27;20034;-69
2022/02/02 10:16:15;;;;;;;6.05;2.10;;;;;;;3.04;78.18;97135.19;5077269;28;20884;-72
2022/02/02 10:18:41;;;;;;;9.65;2.67;;;;;;;3.09;77.80;97121.59;5114614;27;20035;-69
2022/02/02 10:21:07;;;;;;;4.90;2.55;;;;;;;3.10;77.89;97121.34;5113608;27;20023;-69
2022/02/02 10:23:35;;;;;;;5.07;2.00;;;;;;;3.09;77.46;97127.84;5093542;28;20419;-69
2022/02/02 10:26:13;;;;;;;6.50;2.83;;;;;;;3.09;77.52;97127.03;5111845;27;20023;-69
2022/02/02 10:28:39;;;;;;;11.13;4.82;;;;;;;3.11;77.70;97116.72;5110710;27;20032;-69
2022/02/02 10:31:06;;;;;;;6.60;2.70;;;;;;;3.16;77.63;97124.81;5092074;28;20027;-69
2022/02/02 10:33:32;;;;;;;10.57;3.88;;;;;;;3.19;77.10;97121.53;5112976;27;20091;-69
2022/02/02 10:36:15;;;;;;;10.45;3.40;;;;;;;3.23;77.02;97106.34;5113114;27;20032;-69
2022/02/02 10:38:49;;;;;;;9.95;3.22;;;;;;;3.23;76.77;97111.75;5113058;27;20103;-69
2022/02/02 10:41:34;;;;;;;11.55;4.10;;;;;;;3.25;76.66;97125.06;5109623;28;20050;-69
2022/02/02 10:44:12;;;;;;;13.52;4.10;;;;;;;3.20;77.19;97133.22;5093079;28;20105;-69
2022/02/02 10:46:50;;;;;;;11.93;3.60;;;;;;;3.08;77.15;97122.69;5107967;27;20028;-70
2022/02/02 10:49:23;;;;;;;28.35;7.80;;;;;;;3.02;76.96;97121.13;5110991;28;20483;-72
2022/02/02 10:51:56;;;;;;;12.45;3.40;;;;;;;3.02;76.90;97134.66;5101241;27;20035;-70
2022/02/02 11:07:14;;;;;;;9.38;3.55;;;;;;;2.93;78.94;97119.00;5110416;28;20043;-72
2022/02/02 11:09:39;;;;;;;18.58;5.63;;;;;;;2.83;79.23;97119.88;5110826;28;20027;-71
2022/02/02 11:12:08;;;;;;;16.30;4.78;;;;;;;2.79;78.46;97131.53;5089087;28;20042;-71
2022/02/02 11:14:42;;;;;;;10.63;4.23;;;;;;;2.91;80.18;97140.13;5110625;28;20019;-72
2022/02/02 11:17:23;;;;;;;17.52;4.80;;;;;;;2.95;79.52;97146.63;5109469;28;20027;-73
2022/02/02 11:19:52;;;;;;;16.88;5.45;;;;;;;3.14;80.12;97148.66;5091782;28;20023;-71
2022/02/02 11:22:31;;;;;;;13.95;3.97;;;;;;;3.31;79.68;97131.22;5110355;28;20482;-71
2022/02/02 11:25:23;;;;;;;12.02;4.28;;;;;;;3.57;79.24;97132.66;5108802;28;20019;-72
2022/02/02 11:27:51;;;;;;;8.60;3.47;;;;;;;3.76;78.59;97131.16;5080859;28;20028;-71
2022/02/02 11:30:25;;;;;;;8.93;3.33;;;;;;;3.86;78.26;97131.88;5110967;28;20072;-71
2022/02/02 11:32:54;;;;;;;6.43;2.80;;;;;;;3.92;76.55;97139.97;5089484;28;20510;-71
2022/02/02 11:35:46;;;;;;;6.15;1.90;;;;;;;3.84;74.10;97139.50;5111045;28;20032;-69
2022/02/02 11:38:22;;;;;;;8.82;2.55;;;;;;;3.85;75.12;97151.97;5110592;28;20043;-70
2022/02/02 11:43:51;;;;;;;9.02;2.55;;;;;;;3.90;75.56;97142.97;5110033;27;20055;-69
2022/02/02 11:46:45;;;;;;;5.13;2.30;;;;;;;3.90;73.85;97151.09;5108209;28;20078;-70
2022/02/02 11:49:19;;;;;;;8.75;2.85;;;;;;;3.83;74.07;97145.19;5109576;28;20019;-69
2022/02/02 11:51:58;;;;;;;12.48;4.10;;;;;;;3.76;73.62;97147.41;5109135;28;20495;-71
2022/02/02 11:54:53;;;;;;;7.32;2.50;;;;;;;3.77;73.39;97151.75;5109925;28;20039;-68
2022/02/02 11:57:22;;;;;;;8.65;2.85;;;;;;;3.78;73.81;97159.63;5108814;28;20057;-69
2022/02/02 12:08:07;;;;;;;8.55;2.85;;;;;;;3.84;72.73;97163.09;5110280;28;20404;-68
2022/02/02 12:47:49;;;;;;;24.50;7.47;;;;;;;4.37;69.16;97202.25;5107902;28;20047;-69
2022/02/02 12:57:37;;;;;;;20.60;8.57;;;;;;;4.64;68.27;97203.59;5108633;28;20406;-69
2022/02/02 13:00:08;;;;;;;11.75;3.95;;;;;;;4.72;67.58;97192.88;5108928;28;20035;-70
2022/02/02 13:02:38;;;;;;;6.32;2.50;;;;;;;4.84;67.61;97194.38;5109096;28;20019;-70
2022/02/02 13:05:06;;;;;;;6.93;2.50;;;;;;;4.86;67.55;97184.88;5113563;28;20386;-71
2022/02/02 13:07:33;;;;;;;16.70;7.93;;;;;;;4.91;68.54;97190.22;5094788;28;20110;-71
2022/02/02 13:10:01;;;;;;;8.50;3.80;;;;;;;4.98;65.75;97197.22;5113237;28;20053;-71
2022/02/02 13:12:53;;;;;;;22.95;14.25;;;;;;;4.99;65.88;97194.22;5093818;28;20444;-70
2022/02/02 13:25:44;;;;;;;14.82;7.22;;;;;;;4.84;65.69;97200.66;5113264;28;20055;-65
2022/02/02 13:28:11;;;;;;;8.40;3.03;;;;;;;4.79;66.64;97214.28;5112543;28;20106;-67
2022/02/02 13:30:47;;;;;;;6.40;3.22;;;;;;;4.70;66.84;97237.75;5112538;28;20482;-65
2022/02/02 13:33:19;;;;;;;6.53;2.72;;;;;;;4.46;67.74;97242.03;5112040;28;20101;-66
2022/02/02 13:36:09;;;;;;;7.93;2.20;;;;;;;4.17;69.32;97251.00;5112436;28;20085;-68
2022/02/02 13:38:46;;;;;;;12.98;4.60;;;;;;;3.61;73.02;97390.50;5112553;28;20035;-69
2022/02/02 13:54:47;;;;;;;14.85;5.43;;;;;;;1.42;81.55;97343.91;5111839;27;20615;-68
2022/02/02 14:09:01;;;;;;;6.97;3.20;;;;;;;1.43;83.48;97365.25;5070764;28;20514;-69
2022/02/02 14:11:25;;;;;;;8.13;3.10;;;;;;;1.41;83.89;97374.69;5110798;28;20487;-68
2022/02/02 14:33:06;;;;;;;110.05;25.45;;;;;;;1.34;84.56;97396.56;5110351;28;20089;-67
2022/02/02 14:35:33;;;;;;;21.23;6.53;;;;;;;1.34;85.32;97391.94;5112671;27;20043;-68
2022/02/02 14:37:59;;;;;;;31.02;8.38;;;;;;;1.35;84.98;97406.28;5110531;28;20483;-68
2022/02/02 14:40:37;;;;;;;37.00;9.50;;;;;;;1.36;85.64;97409.78;5110699;28;20522;-70
2022/02/02 14:43:05;;;;;;;38.72;11.68;;;;;;;1.36;85.13;97413.31;5109253;27;20039;-68
2022/02/02 14:45:34;;;;;;;37.55;9.27;;;;;;;1.37;85.72;97422.22;5105253;28;20062;-65
2022/02/02 14:48:04;;;;;;;10.38;4.03;;;;;;;1.36;85.76;97426.00;5090977;28;20524;-67
2022/02/02 14:50:37;;;;;;;;;;;;;;;1.42;85.74;97427.66;5111331;28;20085;-67
2022/02/02 15:23:56;;;;;;;16.27;7.40;;;;;;;1.69;86.10;97484.28;5109255;27;20402;-67
2022/02/02 15:25:52;;;;;;;20.80;9.77;;;;;;;1.74;86.19;97489.72;5103769;28;20078;-68
2022/02/02 15:28:15;;;;;;;10.23;5.57;;;;;;;1.75;86.22;97493.22;5108188;27;20031;-65
2022/02/02 15:30:59;;;;;;;13.75;5.63;;;;;;;1.73;86.56;97512.44;5088634;28;20047;-67
2022/02/02 15:33:28;;;;;;;10.75;4.90;;;;;;;1.74;86.96;97524.88;5075416;28;20093;-67
2022/02/02 15:38:44;;;;;;;13.23;5.63;;;;;;;1.70;86.90;97531.88;5033767;27;20474;-65
2022/02/02 15:41:18;;;;;;;13.32;5.85;;;;;;;1.70;86.83;97531.88;5085053;28;20094;-66
2022/02/02 16:02:20;;;;;;;16.85;8.10;;;;;;;1.66;86.91;97563.19;5084384;28;20038;-66
2022/02/02 16:04:45;;;;;;;12.30;6.35;;;;;;;1.66;87.19;97570.47;5083660;28;20644;-67
2022/02/02 16:07:20;;;;;;;12.15;5.88;;;;;;;1.67;87.01;97578.34;5078203;28;20807;-67
2022/02/02 16:09:51;;;;;;;8.48;4.53;;;;;;;1.69;87.38;97583.47;5085286;28;20028;-68
2022/02/02 16:12:41;;;;;;;;;;;;;;;1.68;87.39;97588.09;5066561;28;20090;-67
2022/02/02 16:36:56;;;;;;;9.25;5.25;;;;;;;1.70;86.65;97636.47;5050215;28;20484;-67
2022/02/02 16:39:24;;;;;;;10.85;5.25;;;;;;;1.69;86.40;97635.66;5080977;28;20016;-66
2022/02/02 16:44:34;;;;;;;14.00;5.50;;;;;;;1.74;86.74;97640.28;5088982;28;21134;-67
2022/02/02 16:46:59;;;;;;;7.35;4.30;;;;;;;1.76;86.28;97644.38;5082821;28;20024;-67
2022/02/02 16:49:25;;;;;;;12.85;5.95;;;;;;;1.74;86.92;97660.03;5087728;28;20480;-68
2022/02/02 16:51:51;;;;;;;10.02;4.10;;;;;;;1.76;86.52;97657.91;5089698;28;20584;-68
2022/02/02 16:54:28;;;;;;;6.97;4.35;;;;;;;1.77;86.57;97658.69;5095033;27;20012;-68
2022/02/02 17:32:41;;;;;;;12.55;6.00;;;;;;;1.70;86.30;97815.72;5114400;28;20051;-67
2022/02/02 17:40:00;;;;;;;18.25;4.95;;;;;;;0.50;84.81;97819.84;5113112;28;20036;-68
2022/02/02 18:20:31;;;;;;;16.65;7.93;;;;;;;0.01;87.19;97906.69;5080642;28;20097;-68
2022/02/02 18:23:12;;;;;;;11.35;7.22;;;;;;;0.00;87.60;97916.66;5079751;28;20548;-67
2022/02/02 18:25:50;;;;;;;10.27;4.10;;;;;;;-0.01;87.74;97913.13;5081169;28;20035;-68
2022/02/02 18:29:08;;;;;;;9.68;4.40;;;;;;;-0.02;87.97;97913.38;5080078;28;20035;-67
2022/02/02 18:34:13;;;;;;;8.73;4.57;;;;;;;-0.07;87.68;97919.47;5084768;28;20063;-68
2022/02/02 19:00:15;;;;;;;9.07;5.07;;;;;;;-0.06;88.11;97990.41;5083664;28;20352;-68
2022/02/02 19:56:26;;;;;;;10.10;6.20;;;;;;;0.14;88.02;98109.44;5083364;28;20061;-67
2022/02/02 20:12:41;;;;;;;7.30;4.70;;;;;;;0.26;87.37;98139.09;5041819;28;20051;-68
2022/02/02 20:15:10;;;;;;;10.52;5.38;;;;;;;0.27;87.32;98140.72;5061836;28;20036;-67
2022/02/02 20:17:37;;;;;;;14.98;6.85;;;;;;;0.26;87.59;98138.28;5086831;28;20118;-67
2022/02/02 20:20:18;;;;;;;66.47;20.75;;;;;;;0.27;87.45;98146.13;5092370;28;20387;-68
2022/02/02 20:22:44;;;;;;;23.52;8.73;;;;;;;0.26;87.04;98132.91;5088672;27;20036;-68
2022/02/02 20:25:12;;;;;;;53.33;17.42;;;;;;;0.25;86.83;98139.34;5085879;27;20035;-67
2022/02/02 20:27:38;;;;;;;25.35;8.68;;;;;;;0.21;86.91;98147.06;5082231;28;20035;-66
2022/02/02 20:30:07;;;;;;;72.15;21.40;;;;;;;0.23;86.28;98158.44;5085426;28;20020;-67
2022/02/02 20:32:32;;;;;;;95.00;27.42;;;;;;;0.22;86.86;98174.88;5091906;28;20042;-68
2022/02/02 20:34:58;;;;;;;182.57;47.92;;;;;;;0.21;86.98;98179.44;5090804;28;20032;-66
2022/02/02 20:37:24;;;;;;;105.00;28.85;;;;;;;0.23;86.89;98203.50;5090707;28;20032;-67
2022/02/02 20:42:34;;;;;;;111.07;31.85;;;;;;;0.27;86.91;98210.88;5091556;28;20484;-67
2022/02/02 21:14:09;;;;;;;6.78;3.63;;;;;;;-0.30;87.53;98262.63;5090652;28;20035;-68
2022/02/02 21:16:38;;;;;;;11.52;5.20;;;;;;;-0.32;87.67;98256.63;5090309;28;20046;-65
2022/02/02 21:19:07;;;;;;;13.20;5.03;;;;;;;-0.34;87.92;98264.97;5092335;28;20016;-66
2022/02/02 21:21:50;;;;;;;25.77;9.02;;;;;;;-0.31;87.52;98279.84;5090696;28;20068;-66
2022/02/02 21:29:23;;;;;;;24.45;8.55;;;;;;;-0.31;88.33;98269.06;5077430;28;20088;-66
2022/02/02 21:31:48;;;;;;;18.02;5.40;;;;;;;-0.32;88.00;98275.50;5061700;28;20123;-65
2022/02/02 21:34:14;;;;;;;10.55;4.47;;;;;;;-0.33;87.98;98281.94;5085502;28;20026;-67
2022/02/02 21:36:40;;;;;;;11.05;4.75;;;;;;;-0.36;87.99;98279.69;5089222;28;20148;-66
2022/02/02 21:39:08;;;;;;;10.27;4.55;;;;;;;-0.36;88.08;98285.09;5087647;28;20049;-65
2022/02/02 21:41:38;;;;;;;6.97;2.83;;;;;;;-0.38;87.80;98290.72;5069140;28;20036;-66
2022/02/02 21:44:06;;;;;;;6.82;2.75;;;;;;;-0.38;87.66;98292.59;5088142;28;20047;-66
2022/02/02 21:46:32;;;;;;;8.18;3.20;;;;;;;-0.40;87.51;98300.06;5087442;28;20035;-66
2022/02/02 21:49:00;;;;;;;9.05;3.97;;;;;;;-0.39;87.51;98317.88;5081154;28;20705;-66
2022/02/02 21:51:40;;;;;;;7.55;3.53;;;;;;;-0.39;87.53;98328.66;5079625;28;20027;-66
2022/02/02 21:54:05;;;;;;;7.95;3.20;;;;;;;-0.36;87.40;98341.69;5084680;28;20702;-66
2022/02/02 21:56:32;;;;;;;7.35;3.70;;;;;;;-0.40;87.29;98337.78;5081934;28;20042;-66
2022/02/02 21:58:57;;;;;;;5.75;2.95;;;;;;;-0.46;87.30;98344.94;5068819;28;20670;-66
2022/02/02 22:01:26;;;;;;;8.00;3.25;;;;;;;-0.49;87.44;98353.47;5085587;28;20066;-67
2022/02/02 22:03:51;;;;;;;8.73;3.58;;;;;;;-0.53;87.65;98358.50;5087150;28;20031;-66
2022/02/02 22:06:17;;;;;;;7.53;3.30;;;;;;;-0.53;87.64;98365.75;5085842;28;20028;-66
2022/02/02 22:08:43;;;;;;;6.85;3.20;;;;;;;-0.50;88.10;98373.38;5082869;28;20024;-67
2022/02/02 22:11:09;;;;;;;10.45;4.15;;;;;;;-0.52;87.50;98378.16;5076846;28;20289;-66
2022/02/02 22:13:40;;;;;;;8.57;3.78;;;;;;;-0.52;88.02;98375.47;5077200;28;20107;-66
2022/02/02 22:16:10;;;;;;;9.40;4.43;;;;;;;-0.56;87.92;98372.41;5088538;28;20038;-66
2022/02/02 22:18:37;;;;;;;6.95;3.70;;;;;;;-0.55;87.49;98371.38;5087986;28;20031;-67
2022/02/02 22:21:03;;;;;;;8.80;3.95;;;;;;;-0.58;87.76;98381.75;5087526;28;20069;-65
2022/02/02 22:23:28;;;;;;;5.75;3.30;;;;;;;-0.59;87.89;98386.34;5090169;28;20376;-67
2022/02/02 22:25:56;;;;;;;8.10;4.20;;;;;;;-0.57;87.39;98394.16;5067317;28;20024;-66
2022/02/02 22:28:21;;;;;;;11.40;4.75;;;;;;;-0.56;87.83;98390.44;5067765;28;20135;-66
2022/02/02 22:30:47;;;;;;;8.20;4.18;;;;;;;-0.54;87.90;98401.81;5080665;28;20126;-67
2022/02/02 22:33:12;;;;;;;6.20;3.50;;;;;;;-0.55;87.70;98398.31;5072972;28;20411;-66
2022/02/02 22:35:38;;;;;;;7.15;3.78;;;;;;;-0.55;87.58;98405.56;5081392;28;20503;-66
2022/02/02 22:38:03;;;;;;;8.70;4.00;;;;;;;-0.55;87.60;98411.78;5086757;28;20476;-67
2022/02/02 22:40:28;;;;;;;9.15;3.58;;;;;;;-0.54;87.29;98416.13;5086331;28;20028;-66
2022/02/02 22:42:54;;;;;;;8.35;4.10;;;;;;;-0.52;87.55;98429.34;5078697;28;20905;-66
2022/02/02 22:45:20;;;;;;;14.02;5.47;;;;;;;-0.50;87.53;98435.34;5068821;28;20529;-66
2022/02/02 22:47:47;;;;;;;10.90;5.53;;;;;;;-0.49;87.74;98432.44;5086724;28;20036;-67
2022/02/02 22:50:16;;;;;;;18.35;7.20;;;;;;;-0.46;87.43;98426.59;5085796;28;20040;-66
2022/02/02 22:52:46;;;;;;;36.60;12.10;;;;;;;-0.42;87.45;98428.84;5105604;28;20039;-66
2022/02/02 22:55:14;;;;;;;42.00;11.40;;;;;;;-0.42;87.57;98429.66;5110590;28;20495;-65
2022/02/02 22:57:40;;;;;;;18.80;5.10;;;;;;;-0.39;87.83;98439.16;5110356;28;20020;-67
2022/02/02 23:00:14;;;;;;;10.63;4.18;;;;;;;-0.39;87.44;98448.06;5110592;28;20034;-67
2022/02/02 23:02:57;;;;;;;10.30;4.43;;;;;;;-0.41;87.49;98439.38;5109372;28;20073;-66
2022/02/02 23:05:26;;;;;;;8.38;3.67;;;;;;;-0.39;87.02;98436.44;5110284;28;20015;-66
2022/02/02 23:07:52;;;;;;;10.80;4.10;;;;;;;-0.39;86.73;98447.22;5110192;28;20020;-66
2022/02/02 23:10:20;;;;;;;8.93;3.80;;;;;;;-0.37;87.33;98455.91;5110467;28;20076;-66
2022/02/02 23:12:45;;;;;;;8.57;3.42;;;;;;;-0.38;86.79;98459.66;5110123;28;20015;-66
2022/02/02 23:15:12;;;;;;;5.45;2.95;;;;;;;-0.39;86.36;98476.88;5108225;28;20067;-66